sensor_id;sensor_type;location;lat;lon;timestamp;temperature;humidity
3466;DHT22;1747;48.884;9.160;2024-02-26T01:07:18;8.50;99.90
3466;DHT22;1747;48.884;9.160;2024-02-26T01:09:45;8.50;99.90
3466;DHT22;1747;48.884;9.160;2024-02-26T01:12:12;8.50;99.90
3466;DHT22;1747;48.884;9.160;2024-02-26T01:14:39;8.50;99.90
3466;DHT22;1747;48.884;9.160;2024-02-26T01:17:05;8.50;99.90
3466;DHT22;1747;48.884;9.160;2024-02-26T01:19:32;8.50;99.90
3466;DHT22;1747;48.884;9.160;2024-02-26T01:21:59;8.40;99.90
3466;DHT22;1747;48.884;9.160;2024-02-26T01:24:27;8.30;99.90
3466;DHT22;1747;48.884;9.160;2024-02-26T01:26:54;8.30;99.90
3466;DHT22;1747;48.884;9.160;2024-02-26T01:29:21;8.40;99.90
3466;DHT22;1747;48.884;9.160;2024-02-26T01:31:47;8.40;99.90
3466;DHT22;1747;48.884;9.160;2024-02-26T01:34:14;8.40;99.90
3466;DHT22;1747;48.884;9.160;2024-02-26T01:36:43;8.40;99.90
3466;DHT22;1747;48.884;9.160;2024-02-26T01:39:09;8.50;99.90
3466;DHT22;1747;48.884;9.160;2024-02-26T01:41:40;8.50;99.90
3466;DHT22;1747;48.884;9.160;2024-02-26T01:44:07;8.60;99.90
3466;DHT22;1747;48.884;9.160;2024-02-26T01:46:35;8.60;99.90
3466;DHT22;1747;48.884;9.160;2024-02-26T01:49:03;8.60;99.90
3466;DHT22;1747;48.884;9.160;2024-02-26T01:51:30;8.60;99.90
3466;DHT22;1747;48.884;9.160;2024-02-26T01:53:58;8.60;99.90
3466;DHT22;1747;48.884;9.160;2024-02-26T01:56:26;8.60;99.90
3466;DHT22;1747;48.884;9.160;2024-02-26T01:58:58;8.60;99.90
3466;DHT22;1747;48.884;9.160;2024-02-26T02:01:27;8.70;99.90
3466;DHT22;1747;48.884;9.160;2024-02-26T02:03:54;8.60;99.90
3466;DHT22;1747;48.884;9.160;2024-02-26T02:06:21;8.40;99.90
3466;DHT22;1747;48.884;9.160;2024-02-26T02:08:48;8.40;99.90
3466;DHT22;1747;48.884;9.160;2024-02-26T02:11:16;8.50;99.90
3466;DHT22;1747;48.884;9.160;2024-02-26T02:13:43;8.50;99.90
3466;DHT22;1747;48.884;9.160;2024-02-26T02:16:12;8.50;99.90
3466;DHT22;1747;48.884;9.160;2024-02-26T02:18:39;8.50;99.90
3466;DHT22;1747;48.884;9.160;2024-02-26T02:21:07;8.40;99.90
3466;DHT22;1747;48.884;9.160;2024-02-26T02:23:34;8.40;99.90
3466;DHT22;1747;48.884;9.160;2024-02-26T02:26:01;8.20;99.90
3466;DHT22;1747;48.884;9.160;2024-02-26T02:28:28;8.20;99.90
3466;DHT22;1747;48.884;9.160;2024-02-26T02:30:55;8.10;99.90
3466;DHT22;1747;48.884;9.160;2024-02-26T02:33:23;8.10;99.90
3466;DHT22;1747;48.884;9.160;2024-02-26T02:35:50;8.00;99.90
3466;DHT22;1747;48.884;9.160;2024-02-26T02:38:21;8.00;99.90
3466;DHT22;1747;48.884;9.160;2024-02-26T02:40:49;8.00;99.90
3466;DHT22;1747;48.884;9.160;2024-02-26T02:43:16;8.00;99.90
3466;DHT22;1747;48.884;9.160;2024-02-26T02:45:42;8.10;99.90
3466;DHT22;1747;48.884;9.160;2024-02-26T02:48:10;8.10;99.90
3466;DHT22;1747;48.884;9.160;2024-02-26T02:50:37;8.40;99.90
3466;DHT22;1747;48.884;9.160;2024-02-26T02:53:04;8.50;99.90
3466;DHT22;1747;48.884;9.160;2024-02-26T02:55:32;8.50;99.90
3466;DHT22;1747;48.884;9.160;2024-02-26T02:57:59;8.50;99.90
3466;DHT22;1747;48.884;9.160;2024-02-26T03:00:26;8.60;99.90
3466;DHT22;1747;48.884;9.160;2024-02-26T03:02:53;8.60;99.90
3466;DHT22;1747;48.884;9.160;2024-02-26T03:05:19;8.50;99.90
3466;DHT22;1747;48.884;9.160;2024-02-26T03:07:46;8.40;99.90
3466;DHT22;1747;48.884;9.160;2024-02-26T03:10:12;8.30;99.90
3466;DHT22;1747;48.884;9.160;2024-02-26T03:12:40;8.30;99.90
3466;DHT22;1747;48.884;9.160;2024-02-26T03:15:08;8.50;99.90
3466;DHT22;1747;48.884;9.160;2024-02-26T03:17:36;8.60;99.90
3466;DHT22;1747;48.884;9.160;2024-02-26T03:20:05;8.70;99.90
3466;DHT22;1747;48.884;9.160;2024-02-26T03:22:34;8.80;99.90
3466;DHT22;1747;48.884;9.160;2024-02-26T03:25:01;8.70;99.90
3466;DHT22;1747;48.884;9.160;2024-02-26T03:27:27;8.70;99.90
3466;DHT22;1747;48.884;9.160;2024-02-26T03:29:56;8.60;99.90
3466;DHT22;1747;48.884;9.160;2024-02-26T03:32:23;8.60;99.90
3466;DHT22;1747;48.884;9.160;2024-02-26T03:34:49;8.50;99.90
3466;DHT22;1747;48.884;9.160;2024-02-26T03:37:19;8.50;99.90
3466;DHT22;1747;48.884;9.160;2024-02-26T03:39:46;8.50;99.90
3466;DHT22;1747;48.884;9.160;2024-02-26T03:42:13;8.50;99.90
3466;DHT22;1747;48.884;9.160;2024-02-26T03:44:40;8.40;99.90
3466;DHT22;1747;48.884;9.160;2024-02-26T03:47:08;8.50;99.90
3466;DHT22;1747;48.884;9.160;2024-02-26T03:49:35;8.50;99.90
3466;DHT22;1747;48.884;9.160;2024-02-26T03:52:02;8.40;99.90
3466;DHT22;1747;48.884;9.160;2024-02-26T03:54:28;8.50;99.90
3466;DHT22;1747;48.884;9.160;2024-02-26T03:56:55;8.60;99.90
3466;DHT22;1747;48.884;9.160;2024-02-26T03:59:22;8.50;99.90
3466;DHT22;1747;48.884;9.160;2024-02-26T04:01:50;8.50;99.90
3466;DHT22;1747;48.884;9.160;2024-02-26T04:04:18;8.50;99.90
3466;DHT22;1747;48.884;9.160;2024-02-26T04:06:45;8.50;99.90
3466;DHT22;1747;48.884;9.160;2024-02-26T04:09:14;8.60;99.90
3466;DHT22;1747;48.884;9.160;2024-02-26T04:11:41;8.40;99.90
3466;DHT22;1747;48.884;9.160;2024-02-26T04:14:08;8.40;99.90
3466;DHT22;1747;48.884;9.160;2024-02-26T04:16:37;8.30;99.90
3466;DHT22;1747;48.884;9.160;2024-02-26T04:19:04;8.20;99.90
3466;DHT22;1747;48.884;9.160;2024-02-26T04:21:32;8.20;99.90
3466;DHT22;1747;48.884;9.160;2024-02-26T04:23:59;8.10;99.90
3466;DHT22;1747;48.884;9.160;2024-02-26T04:26:27;8.10;99.90
3466;DHT22;1747;48.884;9.160;2024-02-26T04:28:54;8.20;99.90
3466;DHT22;1747;48.884;9.160;2024-02-26T04:31:21;8.20;99.90
3466;DHT22;1747;48.884;9.160;2024-02-26T04:33:47;8.20;99.90
3466;DHT22;1747;48.884;9.160;2024-02-26T04:36:15;8.30;99.90
3466;DHT22;1747;48.884;9.160;2024-02-26T04:38:43;8.30;99.90
3466;DHT22;1747;48.884;9.160;2024-02-26T04:41:10;8.30;99.90
3466;DHT22;1747;48.884;9.160;2024-02-26T04:43:37;8.40;99.90
3466;DHT22;1747;48.884;9.160;2024-02-26T04:46:07;8.40;99.90
3466;DHT22;1747;48.884;9.160;2024-02-26T04:48:34;8.30;99.90
3466;DHT22;1747;48.884;9.160;2024-02-26T04:51:01;8.40;99.90
3466;DHT22;1747;48.884;9.160;2024-02-26T04:53:28;8.40;99.90
3466;DHT22;1747;48.884;9.160;2024-02-26T04:55:56;8.40;99.90
3466;DHT22;1747;48.884;9.160;2024-02-26T04:58:22;8.40;99.90
3466;DHT22;1747;48.884;9.160;2024-02-26T05:00:49;8.30;99.90
3466;DHT22;1747;48.884;9.160;2024-02-26T05:03:16;8.20;99.90
3466;DHT22;1747;48.884;9.160;2024-02-26T05:05:44;8.10;99.90
3466;DHT22;1747;48.884;9.160;2024-02-26T05:08:11;8.30;99.90
3466;DHT22;1747;48.884;9.160;2024-02-26T05:10:38;8.30;99.90
3466;DHT22;1747;48.884;9.160;2024-02-26T05:13:08;8.30;99.90
3466;DHT22;1747;48.884;9.160;2024-02-26T05:15:34;8.30;99.90
3466;DHT22;1747;48.884;9.160;2024-02-26T05:18:01;8.30;99.90
3466;DHT22;1747;48.884;9.160;2024-02-26T05:20:29;8.20;99.90
3466;DHT22;1747;48.884;9.160;2024-02-26T05:22:56;8.00;99.90
3466;DHT22;1747;48.884;9.160;2024-02-26T05:25:24;7.90;99.90
3466;DHT22;1747;48.884;9.160;2024-02-26T05:27:51;7.80;99.90
3466;DHT22;1747;48.884;9.160;2024-02-26T05:30:19;7.80;99.90
3466;DHT22;1747;48.884;9.160;2024-02-26T05:32:46;7.90;99.90
3466;DHT22;1747;48.884;9.160;2024-02-26T05:35:13;8.00;99.90
3466;DHT22;1747;48.884;9.160;2024-02-26T05:37:40;8.10;99.90
3466;DHT22;1747;48.884;9.160;2024-02-26T05:40:08;8.20;99.90
3466;DHT22;1747;48.884;9.160;2024-02-26T05:42:34;8.30;99.90
3466;DHT22;1747;48.884;9.160;2024-02-26T05:45:01;8.30;99.90
3466;DHT22;1747;48.884;9.160;2024-02-26T05:47:32;8.30;99.90
3466;DHT22;1747;48.884;9.160;2024-02-26T05:49:59;8.40;99.90
3466;DHT22;1747;48.884;9.160;2024-02-26T05:52:26;8.40;99.90
3466;DHT22;1747;48.884;9.160;2024-02-26T05:54:53;8.30;99.90
3466;DHT22;1747;48.884;9.160;2024-02-26T05:57:20;8.10;99.90
3466;DHT22;1747;48.884;9.160;2024-02-26T05:59:47;8.00;99.90
3466;DHT22;1747;48.884;9.160;2024-02-26T06:02:14;7.90;99.90
3466;DHT22;1747;48.884;9.160;2024-02-26T06:04:42;7.90;99.90
3466;DHT22;1747;48.884;9.160;2024-02-26T06:07:09;7.90;99.90
3466;DHT22;1747;48.884;9.160;2024-02-26T06:09:36;8.00;99.90
3466;DHT22;1747;48.884;9.160;2024-02-26T06:12:03;8.00;99.90
3466;DHT22;1747;48.884;9.160;2024-02-26T06:14:30;8.00;99.90
3466;DHT22;1747;48.884;9.160;2024-02-26T06:16:57;8.10;99.90
3466;DHT22;1747;48.884;9.160;2024-02-26T06:19:24;8.10;99.90
3466;DHT22;1747;48.884;9.160;2024-02-26T06:21:52;8.10;99.90
3466;DHT22;1747;48.884;9.160;2024-02-26T06:24:19;8.10;99.90
3466;DHT22;1747;48.884;9.160;2024-02-26T06:26:47;8.10;99.90
3466;DHT22;1747;48.884;9.160;2024-02-26T06:29:14;8.10;99.90
3466;DHT22;1747;48.884;9.160;2024-02-26T06:31:41;8.20;99.90
3466;DHT22;1747;48.884;9.160;2024-02-26T06:34:08;8.20;99.90
3466;DHT22;1747;48.884;9.160;2024-02-26T06:36:35;8.20;99.90
3466;DHT22;1747;48.884;9.160;2024-02-26T06:39:04;8.10;99.90
3466;DHT22;1747;48.884;9.160;2024-02-26T06:41:32;8.10;99.90
3466;DHT22;1747;48.884;9.160;2024-02-26T06:43:59;8.10;99.90
3466;DHT22;1747;48.884;9.160;2024-02-26T06:46:26;8.10;99.90
3466;DHT22;1747;48.884;9.160;2024-02-26T06:48:56;8.20;99.90
3466;DHT22;1747;48.884;9.160;2024-02-26T06:51:23;8.20;99.90
3466;DHT22;1747;48.884;9.160;2024-02-26T06:53:51;8.20;99.90
3466;DHT22;1747;48.884;9.160;2024-02-26T06:56:19;8.20;99.90
3466;DHT22;1747;48.884;9.160;2024-02-26T06:58:46;8.30;99.90
3466;DHT22;1747;48.884;9.160;2024-02-26T07:01:13;8.20;99.90
3466;DHT22;1747;48.884;9.160;2024-02-26T07:03:40;8.30;99.90
3466;DHT22;1747;48.884;9.160;2024-02-26T07:06:08;8.30;99.90
3466;DHT22;1747;48.884;9.160;2024-02-26T07:08:35;8.30;99.90
3466;DHT22;1747;48.884;9.160;2024-02-26T07:11:02;8.20;99.90
3466;DHT22;1747;48.884;9.160;2024-02-26T07:13:31;8.20;99.90
3466;DHT22;1747;48.884;9.160;2024-02-26T07:15:57;8.20;99.90
3466;DHT22;1747;48.884;9.160;2024-02-26T07:18:24;8.20;99.90
3466;DHT22;1747;48.884;9.160;2024-02-26T07:20:51;8.20;99.90
3466;DHT22;1747;48.884;9.160;2024-02-26T07:23:19;8.30;99.90
3466;DHT22;1747;48.884;9.160;2024-02-26T07:25:46;8.30;99.90
3466;DHT22;1747;48.884;9.160;2024-02-26T07:28:14;8.40;99.90
3466;DHT22;1747;48.884;9.160;2024-02-26T07:30:43;8.40;99.90
3466;DHT22;1747;48.884;9.160;2024-02-26T07:33:10;8.40;99.90
3466;DHT22;1747;48.884;9.160;2024-02-26T07:35:36;8.40;99.90
3466;DHT22;1747;48.884;9.160;2024-02-26T07:38:04;8.30;99.90
3466;DHT22;1747;48.884;9.160;2024-02-26T07:40:31;8.40;99.90
3466;DHT22;1747;48.884;9.160;2024-02-26T07:42:58;8.50;99.90
3466;DHT22;1747;48.884;9.160;2024-02-26T07:45:25;8.40;99.90
3466;DHT22;1747;48.884;9.160;2024-02-26T07:47:54;8.40;99.90
3466;DHT22;1747;48.884;9.160;2024-02-26T07:50:21;8.50;99.90
3466;DHT22;1747;48.884;9.160;2024-02-26T07:52:48;8.50;99.90
3466;DHT22;1747;48.884;9.160;2024-02-26T07:55:16;8.50;99.90
3466;DHT22;1747;48.884;9.160;2024-02-26T07:57:44;8.60;99.90
3466;DHT22;1747;48.884;9.160;2024-02-26T08:00:12;8.60;99.90
3466;DHT22;1747;48.884;9.160;2024-02-26T08:02:42;8.70;99.90
3466;DHT22;1747;48.884;9.160;2024-02-26T08:05:10;8.70;99.90
3466;DHT22;1747;48.884;9.160;2024-02-26T08:07:37;8.70;99.90
3466;DHT22;1747;48.884;9.160;2024-02-26T08:10:04;8.70;99.90
3466;DHT22;1747;48.884;9.160;2024-02-26T08:12:30;8.70;99.90
3466;DHT22;1747;48.884;9.160;2024-02-26T08:14:57;8.80;99.90
3466;DHT22;1747;48.884;9.160;2024-02-26T08:17:24;8.80;99.90
3466;DHT22;1747;48.884;9.160;2024-02-26T08:19:52;8.80;99.90
3466;DHT22;1747;48.884;9.160;2024-02-26T08:22:20;8.90;99.90
3466;DHT22;1747;48.884;9.160;2024-02-26T08:24:47;8.90;99.90
3466;DHT22;1747;48.884;9.160;2024-02-26T08:27:14;8.90;99.90
3466;DHT22;1747;48.884;9.160;2024-02-26T08:29:41;8.90;99.90
3466;DHT22;1747;48.884;9.160;2024-02-26T08:32:08;9.00;99.90
3466;DHT22;1747;48.884;9.160;2024-02-26T08:34:35;9.00;99.90
3466;DHT22;1747;48.884;9.160;2024-02-26T08:37:02;9.00;99.90
3466;DHT22;1747;48.884;9.160;2024-02-26T08:39:30;9.10;99.90
3466;DHT22;1747;48.884;9.160;2024-02-26T08:41:57;9.10;99.90
3466;DHT22;1747;48.884;9.160;2024-02-26T08:44:23;9.10;99.90
3466;DHT22;1747;48.884;9.160;2024-02-26T08:46:51;9.10;99.90
3466;DHT22;1747;48.884;9.160;2024-02-26T08:49:18;9.20;99.90
3466;DHT22;1747;48.884;9.160;2024-02-26T08:51:45;9.20;99.90
3466;DHT22;1747;48.884;9.160;2024-02-26T08:54:12;9.30;99.90
3466;DHT22;1747;48.884;9.160;2024-02-26T09:00:03;9.40;99.90
3466;DHT22;1747;48.884;9.160;2024-02-26T09:02:29;9.60;99.90
3466;DHT22;1747;48.884;9.160;2024-02-26T09:04:56;9.60;99.90
3466;DHT22;1747;48.884;9.160;2024-02-26T09:07:23;9.70;99.90
3466;DHT22;1747;48.884;9.160;2024-02-26T09:09:50;9.60;99.90
3466;DHT22;1747;48.884;9.160;2024-02-26T09:12:17;9.60;99.90
3466;DHT22;1747;48.884;9.160;2024-02-26T09:14:45;9.70;99.90
3466;DHT22;1747;48.884;9.160;2024-02-26T09:17:13;9.80;99.90
3466;DHT22;1747;48.884;9.160;2024-02-26T09:19:39;9.80;99.90
3466;DHT22;1747;48.884;9.160;2024-02-26T09:22:07;9.90;99.90
3466;DHT22;1747;48.884;9.160;2024-02-26T09:24:34;9.90;99.90
3466;DHT22;1747;48.884;9.160;2024-02-26T09:27:01;10.10;99.90
3466;DHT22;1747;48.884;9.160;2024-02-26T09:29:28;10.10;99.90
3466;DHT22;1747;48.884;9.160;2024-02-26T09:31:55;10.20;99.90
3466;DHT22;1747;48.884;9.160;2024-02-26T09:34:23;10.30;99.90
3466;DHT22;1747;48.884;9.160;2024-02-26T09:36:50;10.40;99.90
3466;DHT22;1747;48.884;9.160;2024-02-26T09:39:16;10.40;99.90
3466;DHT22;1747;48.884;9.160;2024-02-26T09:41:47;10.30;99.90
3466;DHT22;1747;48.884;9.160;2024-02-26T09:44:18;10.30;99.90
3466;DHT22;1747;48.884;9.160;2024-02-26T09:46:46;10.40;99.90
3466;DHT22;1747;48.884;9.160;2024-02-26T09:49:15;10.50;99.90
3466;DHT22;1747;48.884;9.160;2024-02-26T09:51:44;10.50;99.90
3466;DHT22;1747;48.884;9.160;2024-02-26T09:54:12;10.50;99.90
3466;DHT22;1747;48.884;9.160;2024-02-26T09:56:40;10.60;99.90
3466;DHT22;1747;48.884;9.160;2024-02-26T09:59:10;10.70;99.90
3466;DHT22;1747;48.884;9.160;2024-02-26T10:01:42;10.70;99.90
3466;DHT22;1747;48.884;9.160;2024-02-26T10:04:10;10.80;99.90
3466;DHT22;1747;48.884;9.160;2024-02-26T10:06:37;10.90;99.90
3466;DHT22;1747;48.884;9.160;2024-02-26T10:09:05;11.00;99.90
3466;DHT22;1747;48.884;9.160;2024-02-26T10:11:35;11.20;99.90
3466;DHT22;1747;48.884;9.160;2024-02-26T10:14:04;11.40;99.90
3466;DHT22;1747;48.884;9.160;2024-02-26T10:16:32;11.60;99.90
3466;DHT22;1747;48.884;9.160;2024-02-26T10:19:00;11.60;99.90
3466;DHT22;1747;48.884;9.160;2024-02-26T10:21:27;11.70;99.90
3466;DHT22;1747;48.884;9.160;2024-02-26T10:23:53;11.80;99.90
3466;DHT22;1747;48.884;9.160;2024-02-26T10:26:22;11.90;99.90
3466;DHT22;1747;48.884;9.160;2024-02-26T10:28:49;11.80;99.90
3466;DHT22;1747;48.884;9.160;2024-02-26T10:31:16;11.90;99.90
3466;DHT22;1747;48.884;9.160;2024-02-26T10:33:43;12.10;99.90
3466;DHT22;1747;48.884;9.160;2024-02-26T10:36:11;12.10;99.90
3466;DHT22;1747;48.884;9.160;2024-02-26T10:38:38;12.20;99.90
3466;DHT22;1747;48.884;9.160;2024-02-26T10:41:06;12.40;99.90
3466;DHT22;1747;48.884;9.160;2024-02-26T10:43:35;12.40;99.90
3466;DHT22;1747;48.884;9.160;2024-02-26T10:46:02;12.60;99.90
3466;DHT22;1747;48.884;9.160;2024-02-26T10:48:29;12.60;99.90
3466;DHT22;1747;48.884;9.160;2024-02-26T10:50:57;12.70;99.90
3466;DHT22;1747;48.884;9.160;2024-02-26T10:53:25;12.80;99.90
3466;DHT22;1747;48.884;9.160;2024-02-26T10:55:55;12.90;99.90
3466;DHT22;1747;48.884;9.160;2024-02-26T10:58:24;13.00;99.90
3466;DHT22;1747;48.884;9.160;2024-02-26T11:00:52;13.10;99.90
3466;DHT22;1747;48.884;9.160;2024-02-26T11:03:20;13.10;99.90
3466;DHT22;1747;48.884;9.160;2024-02-26T11:05:49;13.10;99.90
3466;DHT22;1747;48.884;9.160;2024-02-26T11:08:18;13.30;99.90
3466;DHT22;1747;48.884;9.160;2024-02-26T11:10:47;13.40;99.90
3466;DHT22;1747;48.884;9.160;2024-02-26T11:13:15;13.50;99.90
3466;DHT22;1747;48.884;9.160;2024-02-26T11:15:45;13.50;99.90
3466;DHT22;1747;48.884;9.160;2024-02-26T11:18:15;13.50;99.90
3466;DHT22;1747;48.884;9.160;2024-02-26T11:20:42;13.50;99.90
3466;DHT22;1747;48.884;9.160;2024-02-26T11:23:10;13.50;99.90
3466;DHT22;1747;48.884;9.160;2024-02-26T11:25:37;13.50;99.90
3466;DHT22;1747;48.884;9.160;2024-02-26T11:28:06;13.60;99.90
3466;DHT22;1747;48.884;9.160;2024-02-26T11:30:38;13.70;99.90
3466;DHT22;1747;48.884;9.160;2024-02-26T11:33:07;13.80;99.90
3466;DHT22;1747;48.884;9.160;2024-02-26T11:35:36;14.00;99.90
3466;DHT22;1747;48.884;9.160;2024-02-26T11:38:03;13.90;99.90
3466;DHT22;1747;48.884;9.160;2024-02-26T11:40:32;13.90;99.90
3466;DHT22;1747;48.884;9.160;2024-02-26T11:42:59;13.70;99.90
3466;DHT22;1747;48.884;9.160;2024-02-26T11:45:48;13.50;99.90
3466;DHT22;1747;48.884;9.160;2024-02-26T11:48:20;13.40;99.90
3466;DHT22;1747;48.884;9.160;2024-02-26T11:50:50;13.60;99.90
3466;DHT22;1747;48.884;9.160;2024-02-26T11:53:21;13.70;99.90
3466;DHT22;1747;48.884;9.160;2024-02-26T11:55:48;14.00;99.90
3466;DHT22;1747;48.884;9.160;2024-02-26T11:58:35;14.30;99.90
3466;DHT22;1747;48.884;9.160;2024-02-26T12:01:03;14.60;99.90
3466;DHT22;1747;48.884;9.160;2024-02-26T12:03:31;14.80;99.90
3466;DHT22;1747;48.884;9.160;2024-02-26T12:06:00;15.00;99.90
3466;DHT22;1747;48.884;9.160;2024-02-26T12:08:27;15.00;99.90
3466;DHT22;1747;48.884;9.160;2024-02-26T12:10:55;15.10;99.90
3466;DHT22;1747;48.884;9.160;2024-02-26T12:13:29;15.30;99.90
3466;DHT22;1747;48.884;9.160;2024-02-26T12:15:57;15.20;99.90
3466;DHT22;1747;48.884;9.160;2024-02-26T12:18:23;15.30;99.90
3466;DHT22;1747;48.884;9.160;2024-02-26T12:20:59;15.40;99.90
3466;DHT22;1747;48.884;9.160;2024-02-26T12:23:27;15.50;99.90
3466;DHT22;1747;48.884;9.160;2024-02-26T12:25:58;15.40;99.90
3466;DHT22;1747;48.884;9.160;2024-02-26T12:28:27;15.30;99.90
3466;DHT22;1747;48.884;9.160;2024-02-26T12:30:54;15.30;99.90
3466;DHT22;1747;48.884;9.160;2024-02-26T12:33:21;15.50;99.90
3466;DHT22;1747;48.884;9.160;2024-02-26T12:35:49;15.50;99.90
3466;DHT22;1747;48.884;9.160;2024-02-26T12:38:18;15.60;99.90
3466;DHT22;1747;48.884;9.160;2024-02-26T12:40:45;15.70;99.90
3466;DHT22;1747;48.884;9.160;2024-02-26T12:43:14;15.70;99.90
3466;DHT22;1747;48.884;9.160;2024-02-26T12:45:41;15.60;99.90
3466;DHT22;1747;48.884;9.160;2024-02-26T12:48:10;15.70;99.90
3466;DHT22;1747;48.884;9.160;2024-02-26T12:50:38;15.70;99.90
3466;DHT22;1747;48.884;9.160;2024-02-26T12:53:05;15.70;99.90
3466;DHT22;1747;48.884;9.160;2024-02-26T12:55:34;15.40;99.90
3466;DHT22;1747;48.884;9.160;2024-02-26T12:58:05;15.50;99.90
3466;DHT22;1747;48.884;9.160;2024-02-26T13:00:32;15.50;99.90
3466;DHT22;1747;48.884;9.160;2024-02-26T13:02:59;15.60;99.90
3466;DHT22;1747;48.884;9.160;2024-02-26T13:05:27;15.70;99.90
3466;DHT22;1747;48.884;9.160;2024-02-26T13:07:54;15.80;99.90
3466;DHT22;1747;48.884;9.160;2024-02-26T13:10:21;15.90;99.90
3466;DHT22;1747;48.884;9.160;2024-02-26T13:12:51;16.10;99.90
3466;DHT22;1747;48.884;9.160;2024-02-26T13:15:19;16.20;99.90
3466;DHT22;1747;48.884;9.160;2024-02-26T13:17:47;16.30;99.90
3466;DHT22;1747;48.884;9.160;2024-02-26T13:20:25;16.40;99.90
3466;DHT22;1747;48.884;9.160;2024-02-26T13:23:00;16.50;99.90
3466;DHT22;1747;48.884;9.160;2024-02-26T13:25:27;16.50;99.90
3466;DHT22;1747;48.884;9.160;2024-02-26T13:28:05;16.60;99.90
3466;DHT22;1747;48.884;9.160;2024-02-26T13:30:32;16.90;99.90
3466;DHT22;1747;48.884;9.160;2024-02-26T13:33:07;17.30;99.90
3466;DHT22;1747;48.884;9.160;2024-02-26T13:35:34;17.60;98.80
3466;DHT22;1747;48.884;9.160;2024-02-26T13:38:02;17.50;98.70
3466;DHT22;1747;48.884;9.160;2024-02-26T13:40:29;17.60;98.90
3466;DHT22;1747;48.884;9.160;2024-02-26T13:42:56;17.90;98.20
3466;DHT22;1747;48.884;9.160;2024-02-26T13:45:24;18.20;97.80
3466;DHT22;1747;48.884;9.160;2024-02-26T13:47:51;18.50;96.90
3466;DHT22;1747;48.884;9.160;2024-02-26T13:50:18;18.70;96.30
3466;DHT22;1747;48.884;9.160;2024-02-26T13:52:47;18.80;96.00
3466;DHT22;1747;48.884;9.160;2024-02-26T13:55:18;18.80;95.70
3466;DHT22;1747;48.884;9.160;2024-02-26T13:57:46;19.00;95.80
3466;DHT22;1747;48.884;9.160;2024-02-26T14:00:14;18.80;95.70
3466;DHT22;1747;48.884;9.160;2024-02-26T14:02:42;18.90;95.40
3466;DHT22;1747;48.884;9.160;2024-02-26T14:05:09;18.80;95.60
3466;DHT22;1747;48.884;9.160;2024-02-26T14:07:36;18.80;94.30
3466;DHT22;1747;48.884;9.160;2024-02-26T14:10:04;18.60;94.90
3466;DHT22;1747;48.884;9.160;2024-02-26T14:12:30;18.60;95.30
3466;DHT22;1747;48.884;9.160;2024-02-26T14:14:57;18.70;94.80
3466;DHT22;1747;48.884;9.160;2024-02-26T14:17:26;18.80;94.40
3466;DHT22;1747;48.884;9.160;2024-02-26T14:19:56;18.80;94.50
3466;DHT22;1747;48.884;9.160;2024-02-26T14:22:25;18.80;93.60
3466;DHT22;1747;48.884;9.160;2024-02-26T14:24:53;18.60;93.90
3466;DHT22;1747;48.884;9.160;2024-02-26T14:27:19;18.40;93.40
3466;DHT22;1747;48.884;9.160;2024-02-26T14:29:48;18.40;94.20
3466;DHT22;1747;48.884;9.160;2024-02-26T14:32:14;18.60;94.50
3466;DHT22;1747;48.884;9.160;2024-02-26T14:34:41;18.70;93.60
3466;DHT22;1747;48.884;9.160;2024-02-26T14:37:10;18.90;93.50
3466;DHT22;1747;48.884;9.160;2024-02-26T14:39:37;18.80;93.30
3466;DHT22;1747;48.884;9.160;2024-02-26T14:42:05;18.60;93.30
3466;DHT22;1747;48.884;9.160;2024-02-26T14:44:32;18.50;93.30
3466;DHT22;1747;48.884;9.160;2024-02-26T14:46:59;18.40;93.10
3466;DHT22;1747;48.884;9.160;2024-02-26T14:49:25;18.40;93.50
3466;DHT22;1747;48.884;9.160;2024-02-26T14:51:53;18.40;93.80
3466;DHT22;1747;48.884;9.160;2024-02-26T14:54:21;18.50;93.50
3466;DHT22;1747;48.884;9.160;2024-02-26T14:56:48;18.50;93.60
3466;DHT22;1747;48.884;9.160;2024-02-26T14:59:15;18.40;93.10
3466;DHT22;1747;48.884;9.160;2024-02-26T15:01:41;18.20;93.30
3466;DHT22;1747;48.884;9.160;2024-02-26T15:04:08;18.20;93.20
3466;DHT22;1747;48.884;9.160;2024-02-26T15:06:38;18.00;93.80
3466;DHT22;1747;48.884;9.160;2024-02-26T15:09:05;17.80;93.90
3466;DHT22;1747;48.884;9.160;2024-02-26T15:11:37;17.70;94.10
3466;DHT22;1747;48.884;9.160;2024-02-26T15:14:04;17.60;94.40
3466;DHT22;1747;48.884;9.160;2024-02-26T15:16:31;17.40;94.60
3466;DHT22;1747;48.884;9.160;2024-02-26T15:18:59;17.40;94.80
3466;DHT22;1747;48.884;9.160;2024-02-26T15:21:26;17.30;94.10
3466;DHT22;1747;48.884;9.160;2024-02-26T15:23:53;17.20;94.30
3466;DHT22;1747;48.884;9.160;2024-02-26T15:26:20;17.00;94.60
3466;DHT22;1747;48.884;9.160;2024-02-26T15:28:50;16.90;94.60
3466;DHT22;1747;48.884;9.160;2024-02-26T15:31:17;16.70;94.70
3466;DHT22;1747;48.884;9.160;2024-02-26T15:33:44;16.60;94.70
3466;DHT22;1747;48.884;9.160;2024-02-26T15:36:11;16.40;94.80
3466;DHT22;1747;48.884;9.160;2024-02-26T15:38:38;16.20;95.30
3466;DHT22;1747;48.884;9.160;2024-02-26T15:41:11;16.10;95.70
3466;DHT22;1747;48.884;9.160;2024-02-26T15:43:39;15.90;95.80
3466;DHT22;1747;48.884;9.160;2024-02-26T15:46:07;15.80;96.00
3466;DHT22;1747;48.884;9.160;2024-02-26T15:48:36;15.90;96.10
3466;DHT22;1747;48.884;9.160;2024-02-26T15:51:04;15.90;96.00
3466;DHT22;1747;48.884;9.160;2024-02-26T15:53:31;15.80;96.10
3466;DHT22;1747;48.884;9.160;2024-02-26T15:55:59;15.70;96.30
3466;DHT22;1747;48.884;9.160;2024-02-26T15:58:27;15.60;96.20
3466;DHT22;1747;48.884;9.160;2024-02-26T16:00:57;15.50;96.40
3466;DHT22;1747;48.884;9.160;2024-02-26T16:03:25;15.50;96.70
3466;DHT22;1747;48.884;9.160;2024-02-26T16:05:53;15.30;97.00
3466;DHT22;1747;48.884;9.160;2024-02-26T16:08:21;15.40;97.20
3466;DHT22;1747;48.884;9.160;2024-02-26T16:10:49;15.20;97.50
3466;DHT22;1747;48.884;9.160;2024-02-26T16:13:17;15.10;98.00
3466;DHT22;1747;48.884;9.160;2024-02-26T16:15:48;15.00;98.20
3466;DHT22;1747;48.884;9.160;2024-02-26T16:18:17;15.00;98.40
3466;DHT22;1747;48.884;9.160;2024-02-26T16:20:46;15.00;98.40
3466;DHT22;1747;48.884;9.160;2024-02-26T16:23:13;15.00;98.90
3466;DHT22;1747;48.884;9.160;2024-02-26T16:25:40;14.80;98.80
3466;DHT22;1747;48.884;9.160;2024-02-26T16:28:07;14.70;99.00
3466;DHT22;1747;48.884;9.160;2024-02-26T16:30:33;14.70;99.10
3466;DHT22;1747;48.884;9.160;2024-02-26T16:33:00;14.60;99.30
3466;DHT22;1747;48.884;9.160;2024-02-26T16:35:27;14.60;99.30
3466;DHT22;1747;48.884;9.160;2024-02-26T16:37:56;14.60;99.30
3466;DHT22;1747;48.884;9.160;2024-02-26T16:40:23;14.50;99.50
3466;DHT22;1747;48.884;9.160;2024-02-26T16:42:49;14.30;99.90
3466;DHT22;1747;48.884;9.160;2024-02-26T16:45:16;14.20;99.90
3466;DHT22;1747;48.884;9.160;2024-02-26T16:47:43;14.20;99.90
3466;DHT22;1747;48.884;9.160;2024-02-26T16:50:22;14.20;98.60
3466;DHT22;1747;48.884;9.160;2024-02-26T16:53:04;14.10;98.00
3466;DHT22;1747;48.884;9.160;2024-02-26T16:55:31;14.00;98.10
3466;DHT22;1747;48.884;9.160;2024-02-26T16:57:58;14.00;97.00
3466;DHT22;1747;48.884;9.160;2024-02-26T17:00:25;14.00;96.90
3466;DHT22;1747;48.884;9.160;2024-02-26T17:02:52;13.80;96.70
3466;DHT22;1747;48.884;9.160;2024-02-26T17:05:21;13.80;96.90
3466;DHT22;1747;48.884;9.160;2024-02-26T17:07:48;13.80;96.90
3466;DHT22;1747;48.884;9.160;2024-02-26T17:10:16;13.70;97.30
3466;DHT22;1747;48.884;9.160;2024-02-26T17:12:43;13.70;97.30
3466;DHT22;1747;48.884;9.160;2024-02-26T17:15:11;13.70;97.40
3466;DHT22;1747;48.884;9.160;2024-02-26T17:17:38;13.60;97.50
3466;DHT22;1747;48.884;9.160;2024-02-26T17:20:06;13.40;97.90
3466;DHT22;1747;48.884;9.160;2024-02-26T17:22:34;13.30;98.10